Time;durP1;ratioP1;P1;durP2;ratioP2;P2;SDS_P1;SDS_P2;PMS_P1;PMS_P2;Temp;Humidity;BMP_temperature;BMP_pressure;BME280_temperature;BME280_humidity;BME280_pressure;Samples;Min_cycle;Max_cycle;Signal;HPM_P1;HPM_P2
2024/05/07 00:00:38;;;;;;;1.58;1.58;;;15.10;99.90;;;;;;7527108;26;20232;-75
2024/05/07 00:04:05;;;;;;;1.90;1.80;;;15.00;99.90;;;;;;7527841;26;20294;-75
2024/05/07 00:07:28;;;;;;;2.45;2.33;;;15.00;99.90;;;;;;7515425;26;20230;-75
2024/05/07 00:10:51;;;;;;;2.38;2.25;;;15.10;99.90;;;;;;7520595;26;20483;-75
2024/05/07 00:14:14;;;;;;;2.30;2.10;;;15.10;99.90;;;;;;7513603;26;20285;-78
2024/05/07 00:17:37;;;;;;;1.98;1.88;;;15.00;99.90;;;;;;7523304;26;20236;-78
2024/05/07 00:21:03;;;;;;;2.30;2.20;;;15.00;99.90;;;;;;7513463;26;20228;-78
2024/05/07 00:24:26;;;;;;;2.60;2.40;;;14.80;99.90;;;;;;7527963;26;20232;-77
2024/05/07 00:27:49;;;;;;;2.55;2.45;;;14.80;99.90;;;;;;7508216;26;20229;-76
2024/05/07 00:31:12;;;;;;;2.40;2.30;;;14.90;99.90;;;;;;7527790;26;20578;-77
2024/05/07 00:34:36;;;;;;;2.35;2.25;;;14.90;99.90;;;;;;7522262;26;20233;-77
2024/05/07 00:38:01;;;;;;;2.05;1.92;;;14.90;99.90;;;;;;7527504;26;20233;-76
2024/05/07 00:41:24;;;;;;;2.33;2.13;;;15.00;99.90;;;;;;7527592;26;20319;-77
2024/05/07 00:44:48;;;;;;;2.50;2.40;;;15.00;99.90;;;;;;7508440;26;20308;-79
2024/05/07 00:48:11;;;;;;;2.58;2.33;;;15.00;99.90;;;;;;7525643;26;20275;-79
2024/05/07 00:51:34;;;;;;;2.38;2.28;;;15.20;99.90;;;;;;7527408;26;20745;-77
2024/05/07 00:55:00;;;;;;;2.10;2.00;;;15.20;99.90;;;;;;7526969;26;20228;-77
2024/05/07 00:58:25;;;;;;;2.67;2.58;;;15.30;99.90;;;;;;7514324;26;20275;-78
2024/05/07 01:01:50;;;;;;;2.50;2.35;;;15.30;99.90;;;;;;7528658;26;20571;-78
2024/05/07 01:05:13;;;;;;;2.95;2.75;;;15.40;99.90;;;;;;7528447;26;20267;-78
2024/05/07 01:08:36;;;;;;;3.47;2.58;;;15.40;99.90;;;;;;7530724;26;20232;-78
2024/05/07 01:12:01;;;;;;;2.10;2.00;;;15.50;99.90;;;;;;7498632;26;20341;-77
2024/05/07 01:15:24;;;;;;;1.70;1.60;;;15.40;99.90;;;;;;7514045;26;20277;-78
2024/05/07 01:18:47;;;;;;;2.00;1.90;;;15.40;99.90;;;;;;7528878;26;20338;-78
2024/05/07 01:22:18;;;;;;;2.75;1.92;;;15.00;99.90;;;;;;7528744;26;20699;-78
2024/05/07 01:25:46;;;;;;;1.90;1.80;;;14.90;99.90;;;;;;7525372;26;20344;-77
2024/05/07 01:29:09;;;;;;;2.10;2.00;;;14.90;99.90;;;;;;7524785;26;20735;-77
2024/05/07 01:32:32;;;;;;;1.98;1.88;;;15.00;99.90;;;;;;7511424;26;20336;-77
2024/05/07 01:35:55;;;;;;;1.95;1.85;;;14.90;99.90;;;;;;7527196;26;20232;-77
2024/05/07 01:39:18;;;;;;;2.20;2.10;;;15.00;99.90;;;;;;7516585;26;20281;-76
2024/05/07 01:42:44;;;;;;;2.03;1.92;;;15.10;99.90;;;;;;7518927;26;20564;-75
2024/05/07 01:46:07;;;;;;;2.45;2.35;;;15.30;99.90;;;;;;7486320;26;20232;-75
2024/05/07 01:49:29;;;;;;;2.45;2.35;;;15.10;99.90;;;;;;7516916;26;20348;-75
2024/05/07 01:52:52;;;;;;;2.00;1.90;;;15.40;99.90;;;;;;7518391;26;20249;-76
2024/05/07 01:56:15;;;;;;;3.17;2.90;;;15.50;99.90;;;;;;7520102;26;20229;-77
2024/05/07 01:59:41;;;;;;;2.78;2.67;;;15.50;99.90;;;;;;7521543;26;20292;-77
2024/05/07 02:03:05;;;;;;;2.67;2.47;;;15.60;99.90;;;;;;7516868;26;20230;-76
2024/05/07 02:06:28;;;;;;;2.33;2.22;;;15.60;99.90;;;;;;7526478;26;20228;-77
2024/05/07 02:09:51;;;;;;;3.05;2.85;;;15.60;99.90;;;;;;7526410;26;20232;-76
2024/05/07 02:13:14;;;;;;;2.35;2.25;;;15.60;99.90;;;;;;7525685;26;20343;-77
2024/05/07 02:16:39;;;;;;;2.30;2.20;;;15.60;99.90;;;;;;7508313;26;20276;-77
2024/05/07 02:20:02;;;;;;;2.92;2.83;;;15.70;99.90;;;;;;7504124;26;20268;-77
2024/05/07 02:23:25;;;;;;;2.38;1.85;;;15.50;99.90;;;;;;7494656;26;20233;-77
2024/05/07 02:26:48;;;;;;;2.15;2.00;;;15.50;99.90;;;;;;7519364;26;20279;-76
2024/05/07 02:30:11;;;;;;;2.20;2.10;;;15.70;99.90;;;;;;7515540;26;20236;-78
2024/05/07 02:33:37;;;;;;;2.40;2.28;;;15.70;99.90;;;;;;7507804;26;20232;-77
2024/05/07 02:37:00;;;;;;;2.28;2.17;;;15.80;99.90;;;;;;7509463;26;20268;-77
2024/05/07 02:40:23;;;;;;;2.40;2.30;;;15.70;99.90;;;;;;7516913;26;20232;-78
2024/05/07 02:43:46;;;;;;;2.33;2.22;;;15.90;99.90;;;;;;7514329;26;20572;-78
2024/05/07 02:47:08;;;;;;;1.98;1.80;;;15.90;99.90;;;;;;7525789;26;20303;-78
2024/05/07 02:50:34;;;;;;;1.70;1.60;;;15.60;99.90;;;;;;7504436;26;20248;-77
2024/05/07 02:53:57;;;;;;;1.90;1.80;;;15.60;99.90;;;;;;7518729;26;20302;-76
2024/05/07 02:57:20;;;;;;;2.13;2.03;;;15.70;99.90;;;;;;7525495;26;20228;-76
2024/05/07 03:00:43;;;;;;;2.40;2.30;;;15.30;99.90;;;;;;7500000;26;20560;-76
2024/05/07 03:04:06;;;;;;;1.85;1.83;;;15.10;99.90;;;;;;7517314;26;20236;-76
2024/05/07 03:07:32;;;;;;;2.72;2.63;;;15.10;99.90;;;;;;7506610;26;20284;-76
2024/05/07 03:10:55;;;;;;;2.70;2.60;;;15.10;99.90;;;;;;7498163;26;20240;-76
2024/05/07 03:14:18;;;;;;;2.22;2.13;;;15.10;99.90;;;;;;7529606;26;20236;-76
2024/05/07 03:17:41;;;;;;;2.75;2.65;;;15.20;99.90;;;;;;7509446;26;20283;-77
2024/05/07 03:21:05;;;;;;;3.00;2.72;;;15.30;99.90;;;;;;7511085;26;20228;-77
2024/05/07 03:24:30;;;;;;;2.30;2.20;;;15.40;99.90;;;;;;7531124;26;20244;-78
2024/05/07 03:27:53;;;;;;;3.25;3.10;;;15.50;99.90;;;;;;7525259;26;20228;-76
2024/05/07 03:31:16;;;;;;;3.33;3.13;;;15.10;99.90;;;;;;7524375;26;20283;-77
2024/05/07 03:34:39;;;;;;;3.83;3.53;;;15.20;99.90;;;;;;7521723;26;20332;-76
2024/05/07 03:38:02;;;;;;;3.25;3.13;;;15.10;99.90;;;;;;7501383;26;20337;-78
2024/05/07 03:41:28;;;;;;;3.75;3.55;;;15.10;99.90;;;;;;7493039;26;20230;-77
2024/05/07 03:44:51;;;;;;;4.35;3.95;;;15.20;99.90;;;;;;7527550;26;20232;-76
2024/05/07 03:48:14;;;;;;;3.95;3.70;;;15.10;99.90;;;;;;7507285;26;20291;-76
2024/05/07 03:51:41;;;;;;;3.63;3.42;;;15.10;99.90;;;;;;7509907;26;20236;-76
2024/05/07 03:55:04;;;;;;;3.47;3.28;;;15.00;99.90;;;;;;7525106;26;20275;-76
2024/05/07 03:58:29;;;;;;;3.38;3.17;;;15.30;99.90;;;;;;7518663;26;20596;-77
2024/05/07 04:01:52;;;;;;;3.63;3.42;;;15.20;99.90;;;;;;7522364;26;20244;-77
2024/05/07 04:05:15;;;;;;;3.83;3.63;;;15.30;99.90;;;;;;7505926;26;20264;-76
2024/05/07 04:08:42;;;;;;;3.50;3.30;;;15.10;99.90;;;;;;7513417;26;20301;-77
2024/05/07 04:12:06;;;;;;;3.30;3.00;;;15.30;99.90;;;;;;7515626;26;20236;-77
2024/05/07 04:15:31;;;;;;;3.60;3.28;;;15.50;99.90;;;;;;7518101;26;20769;-77
2024/05/07 04:18:54;;;;;;;4.10;3.70;;;15.70;99.90;;;;;;7524250;26;20342;-76
2024/05/07 04:22:17;;;;;;;4.28;3.97;;;15.30;99.90;;;;;;7515297;26;20233;-76
2024/05/07 04:25:41;;;;;;;4.15;3.85;;;15.40;99.90;;;;;;7523788;26;20233;-77
2024/05/07 04:29:04;;;;;;;4.22;4.03;;;15.50;99.90;;;;;;7510671;26;20228;-75
2024/05/07 04:32:29;;;;;;;4.35;4.15;;;15.80;99.90;;;;;;7517214;26;20229;-76
2024/05/07 04:35:52;;;;;;;4.28;3.97;;;15.70;99.90;;;;;;7523673;26;20228;-77
2024/05/07 04:39:15;;;;;;;4.30;4.10;;;15.50;99.90;;;;;;7521942;26;20229;-77
2024/05/07 04:42:38;;;;;;;4.47;4.20;;;15.30;99.90;;;;;;7504032;26;20233;-76
2024/05/07 04:46:02;;;;;;;3.92;3.72;;;15.40;99.90;;;;;;7511981;26;20335;-76
2024/05/07 04:49:29;;;;;;;4.03;3.83;;;15.40;99.90;;;;;;7522724;26;20270;-76
2024/05/07 04:52:52;;;;;;;4.53;4.22;;;15.50;99.90;;;;;;7520869;26;20232;-75
2024/05/07 04:56:15;;;;;;;4.18;3.95;;;15.70;99.90;;;;;;7506468;26;20773;-76
2024/05/07 04:59:38;;;;;;;11.30;10.57;;;15.60;99.90;;;;;;7498314;26;20606;-76
2024/05/07 05:03:01;;;;;;;5.97;5.57;;;15.50;99.90;;;;;;7497649;26;20240;-75
2024/05/07 05:06:26;;;;;;;4.68;3.53;;;15.80;99.90;;;;;;7518363;26;20232;-76
2024/05/07 05:09:49;;;;;;;4.15;3.85;;;16.00;99.90;;;;;;7514201;26;20730;-76
2024/05/07 05:13:12;;;;;;;4.03;3.75;;;16.10;99.90;;;;;;7512600;26;20604;-76
2024/05/07 05:16:35;;;;;;;3.70;3.40;;;16.00;99.90;;;;;;7511280;26;20272;-77
2024/05/07 05:19:58;;;;;;;5.25;4.90;;;15.80;99.90;;;;;;7518396;26;20233;-77
2024/05/07 05:23:24;;;;;;;3.53;3.30;;;16.20;99.90;;;;;;7528479;26;20738;-75
2024/05/07 05:26:48;;;;;;;3.95;3.70;;;16.20;99.90;;;;;;7518279;26;20700;-75
2024/05/07 05:30:11;;;;;;;3.80;3.53;;;16.30;99.90;;;;;;7506458;26;20313;-77
2024/05/07 05:33:35;;;;;;;4.47;4.07;;;16.40;99.90;;;;;;7510073;26;20601;-76
2024/05/07 05:36:58;;;;;;;5.13;4.15;;;16.40;99.90;;;;;;7507541;26;20229;-82
2024/05/07 05:40:24;;;;;;;4.25;4.05;;;16.40;99.90;;;;;;7516143;26;20229;-77
2024/05/07 05:43:47;;;;;;;4.18;3.53;;;16.60;99.90;;;;;;7522139;26;20240;-77
2024/05/07 05:47:10;;;;;;;4.20;3.95;;;16.60;99.90;;;;;;7510177;26;20232;-77
2024/05/07 05:50:33;;;;;;;4.03;3.55;;;16.90;99.90;;;;;;7519540;26;20236;-78
2024/05/07 05:53:56;;;;;;;4.85;4.35;;;17.10;99.90;;;;;;7495540;26;20249;-76
2024/05/07 05:57:22;;;;;;;5.63;5.20;;;17.10;99.90;;;;;;7507071;26;20228;-77
2024/05/07 06:00:46;;;;;;;3.97;3.78;;;17.40;99.90;;;;;;7494002;26;20787;-78
2024/05/07 06:04:09;;;;;;;4.00;3.80;;;17.40;99.90;;;;;;7494153;26;20229;-79
2024/05/07 06:07:32;;;;;;;4.05;3.85;;;17.30;99.90;;;;;;7518861;26;20278;-78
2024/05/07 06:10:55;;;;;;;4.18;3.95;;;17.40;99.90;;;;;;7504980;26;20236;-77
2024/05/07 06:14:21;;;;;;;3.75;3.55;;;17.40;99.90;;;;;;7494624;26;20237;-78
2024/05/07 06:17:44;;;;;;;4.88;4.57;;;17.50;99.90;;;;;;7504911;26;20229;-77
2024/05/07 06:21:08;;;;;;;4.70;4.40;;;17.70;99.90;;;;;;7512423;26;20278;-76
2024/05/07 06:24:31;;;;;;;5.13;4.82;;;17.80;99.90;;;;;;7502371;26;20229;-78
2024/05/07 06:27:54;;;;;;;4.45;4.15;;;17.60;99.90;;;;;;7518558;26;20271;-79
2024/05/07 06:31:21;;;;;;;6.65;6.15;;;17.80;99.90;;;;;;7512959;26;20603;-78
2024/05/07 06:34:44;;;;;;;4.63;4.32;;;18.00;99.90;;;;;;7514329;26;20232;-78
2024/05/07 06:38:07;;;;;;;7.95;7.35;;;18.00;99.90;;;;;;7512874;26;20232;-78
2024/05/07 06:41:30;;;;;;;5.15;4.88;;;18.20;99.90;;;;;;7508311;26;20793;-78
2024/05/07 06:44:53;;;;;;;5.30;4.80;;;18.20;99.90;;;;;;7504955;26;20268;-78
2024/05/07 06:48:19;;;;;;;6.50;5.47;;;18.40;99.90;;;;;;7511766;26;20229;-78
2024/05/07 06:51:42;;;;;;;5.80;5.30;;;18.10;99.90;;;;;;7514602;26;20735;-80
2024/05/07 06:55:05;;;;;;;6.40;6.00;;;18.30;99.90;;;;;;7517755;26;20340;-78
2024/05/07 06:58:28;;;;;;;6.88;6.47;;;18.70;99.90;;;;;;7518577;26;20232;-77
2024/05/07 07:01:51;;;;;;;5.93;5.25;;;18.80;99.90;;;;;;7515770;26;20286;-78
2024/05/07 07:05:17;;;;;;;6.55;5.80;;;18.90;99.90;;;;;;7514261;26;20244;-78
2024/05/07 07:08:40;;;;;;;4.30;4.00;;;18.90;99.90;;;;;;7506849;26;20275;-78
2024/05/07 07:12:03;;;;;;;5.15;4.85;;;19.00;99.90;;;;;;7506675;26;20264;-77
2024/05/07 07:15:26;;;;;;;5.57;5.13;;;19.40;99.90;;;;;;7498261;26;20306;-79
2024/05/07 07:18:49;;;;;;;5.32;5.03;;;19.40;99.90;;;;;;7504323;26;20284;-79
2024/05/07 07:22:14;;;;;;;5.03;4.68;;;19.50;99.90;;;;;;7520861;26;20279;-79
2024/05/07 07:25:37;;;;;;;5.68;4.90;;;19.60;99.90;;;;;;7514111;26;20279;-78
2024/05/07 07:29:00;;;;;;;5.25;4.28;;;19.20;99.90;;;;;;7513258;26;20916;-79
2024/05/07 07:32:23;;;;;;;4.57;4.28;;;19.10;99.90;;;;;;7511950;26;20271;-78
2024/05/07 07:35:46;;;;;;;5.55;5.05;;;19.30;99.90;;;;;;7509598;26;20232;-79
2024/05/07 07:39:12;;;;;;;4.80;4.47;;;19.30;99.90;;;;;;7519187;26;20637;-79
2024/05/07 07:42:35;;;;;;;4.25;3.92;;;19.50;99.90;;;;;;7506822;26;20232;-77
2024/05/07 07:45:58;;;;;;;4.88;4.57;;;19.70;99.90;;;;;;7511364;26;20248;-79
2024/05/07 07:49:21;;;;;;;5.03;4.72;;;19.60;99.90;;;;;;7504177;26;20632;-77
2024/05/07 07:52:44;;;;;;;4.95;4.65;;;20.30;99.90;;;;;;7508176;26;20694;-79
2024/05/07 07:56:10;;;;;;;5.32;3.83;;;21.00;99.90;;;;;;7514156;26;20229;-78
2024/05/07 07:59:34;;;;;;;4.40;4.10;;;22.00;99.90;;;;;;7524503;26;20228;-78
2024/05/07 08:02:57;;;;;;;5.10;4.80;;;21.30;99.90;;;;;;7508355;26;20287;-79
2024/05/07 08:06:20;;;;;;;4.50;4.15;;;21.70;99.90;;;;;;7523297;26;20275;-80
2024/05/07 08:09:43;;;;;;;4.75;4.35;;;21.70;99.90;;;;;;7513749;26;20280;-77
2024/05/07 08:13:09;;;;;;;4.60;4.30;;;22.20;99.90;;;;;;7510135;26;20229;-79
2024/05/07 08:16:32;;;;;;;4.30;4.10;;;22.40;99.90;;;;;;7507381;26;20220;-80
2024/05/07 08:19:55;;;;;;;5.30;5.00;;;21.70;99.90;;;;;;7518280;26;20274;-80
2024/05/07 08:23:18;;;;;;;5.38;5.07;;;21.40;99.90;;;;;;7510116;26;20363;-80
2024/05/07 08:26:45;;;;;;;5.00;4.70;;;20.50;99.90;;;;;;7509123;26;20275;-77
2024/05/07 08:30:11;;;;;;;4.90;4.60;;;21.20;99.90;;;;;;7512513;26;20298;-77
2024/05/07 08:33:34;;;;;;;4.55;4.13;;;21.70;99.90;;;;;;7512392;26;20336;-78
2024/05/07 08:36:57;;;;;;;5.05;4.75;;;22.30;99.90;;;;;;7516204;26;20263;-78
2024/05/07 08:40:20;;;;;;;4.68;4.40;;;22.40;99.90;;;;;;7509859;26;20279;-78
2024/05/07 08:43:44;;;;;;;7.00;6.40;;;21.90;99.90;;;;;;7509050;26;20628;-79
2024/05/07 08:47:11;;;;;;;5.20;4.80;;;21.50;99.90;;;;;;7492395;26;20270;-79
2024/05/07 08:50:35;;;;;;;4.90;4.50;;;21.00;99.90;;;;;;7512191;26;20233;-79
2024/05/07 08:54:01;;;;;;;5.45;5.05;;;20.80;99.90;;;;;;7514020;26;20328;-78
2024/05/07 08:57:24;;;;;;;4.68;4.35;;;20.50;99.90;;;;;;7509618;26;20232;-78
2024/05/07 09:00:47;;;;;;;4.80;4.43;;;20.60;99.90;;;;;;7509626;26;20947;-78
2024/05/07 09:04:22;;;;;;;4.63;4.32;;;20.60;99.90;;;;;;7513874;26;20317;-79
2024/05/07 09:07:45;;;;;;;4.65;4.35;;;20.40;99.90;;;;;;7494653;26;20237;-77
2024/05/07 09:11:17;;;;;;;4.63;4.32;;;19.80;99.90;;;;;;7501755;26;20270;-78
2024/05/07 09:14:40;;;;;;;5.05;4.70;;;19.40;99.90;;;;;;7515375;26;20577;-78
2024/05/07 09:18:03;;;;;;;8.30;5.00;;;19.30;99.90;;;;;;7506477;26;20272;-78
2024/05/07 09:21:30;;;;;;;5.30;5.00;;;19.40;99.90;;;;;;7513910;26;20275;-78
2024/05/07 09:24:56;;;;;;;5.95;5.55;;;19.80;99.90;;;;;;7497205;26;20230;-78
2024/05/07 09:28:19;;;;;;;6.43;5.65;;;20.10;99.90;;;;;;7516869;26;20232;-77
2024/05/07 09:31:46;;;;;;;6.18;5.63;;;20.40;99.90;;;;;;7507159;26;20272;-77
2024/05/07 09:35:12;;;;;;;5.47;5.07;;;20.60;99.90;;;;;;7507064;26;20547;-78
2024/05/07 09:38:41;;;;;;;6.78;6.20;;;20.50;99.90;;;;;;7510385;26;20224;-77
2024/05/07 09:42:09;;;;;;;5.95;5.45;;;20.10;99.90;;;;;;7500928;26;20233;-76
2024/05/07 09:45:41;;;;;;;6.47;5.93;;;20.20;99.90;;;;;;7511480;26;20239;-77
2024/05/07 09:49:06;;;;;;;5.22;4.93;;;20.30;99.90;;;;;;7510954;26;20276;-78
2024/05/07 09:52:30;;;;;;;5.72;4.97;;;20.60;99.90;;;;;;7512334;26;20611;-78
2024/05/07 09:55:57;;;;;;;5.25;4.93;;;20.80;99.90;;;;;;7504743;26;20599;-79
2024/05/07 09:59:22;;;;;;;7.78;7.28;;;21.10;99.90;;;;;;7508555;26;20328;-78
2024/05/07 10:02:45;;;;;;;5.75;5.18;;;21.00;99.90;;;;;;7508796;26;20232;-77
2024/05/07 10:06:10;;;;;;;5.65;5.35;;;20.80;99.90;;;;;;7502539;26;20225;-78
2024/05/07 10:09:40;;;;;;;5.70;5.32;;;20.60;99.90;;;;;;7515246;26;20606;-78
2024/05/07 10:13:08;;;;;;;6.70;6.20;;;20.00;99.90;;;;;;7510006;26;20599;-78
2024/05/07 10:16:33;;;;;;;6.72;6.13;;;20.10;99.90;;;;;;7500743;26;20766;-77
2024/05/07 10:19:56;;;;;;;6.68;6.28;;;20.30;99.90;;;;;;7497213;26;20699;-77
2024/05/07 10:23:19;;;;;;;7.00;6.50;;;20.30;99.90;;;;;;7526595;26;20229;-77
2024/05/07 10:26:42;;;;;;;9.25;8.45;;;20.40;99.90;;;;;;7519764;26;20236;-77
2024/05/07 10:30:08;;;;;;;7.53;6.93;;;20.30;99.90;;;;;;7518123;26;20639;-77
2024/05/07 10:33:33;;;;;;;7.45;6.88;;;20.20;99.90;;;;;;7518143;26;20228;-77
2024/05/07 10:37:01;;;;;;;7.35;6.95;;;20.00;99.90;;;;;;7510462;26;20260;-78
2024/05/07 10:40:26;;;;;;;8.18;7.68;;;20.00;99.90;;;;;;7517976;26;20359;-77
2024/05/07 10:43:50;;;;;;;7.90;7.40;;;20.20;99.90;;;;;;7521640;26;20228;-77
2024/05/07 10:47:17;;;;;;;7.43;6.85;;;20.40;99.90;;;;;;7517091;26;20272;-78
2024/05/07 10:50:40;;;;;;;7.70;7.18;;;20.40;99.90;;;;;;7524386;26;20231;-77
2024/05/07 10:54:03;;;;;;;8.77;8.18;;;20.50;99.90;;;;;;7514595;26;20233;-76
2024/05/07 10:57:26;;;;;;;9.20;8.50;;;20.30;99.90;;;;;;7503794;26;20394;-77
2024/05/07 11:00:49;;;;;;;8.52;7.93;;;19.90;99.90;;;;;;7511443;26;20716;-78
2024/05/07 11:04:16;;;;;;;8.27;7.68;;;19.80;99.90;;;;;;7520076;26;20612;-79
2024/05/07 11:07:39;;;;;;;7.80;7.10;;;19.80;99.90;;;;;;7515076;26;20727;-77
2024/05/07 11:11:07;;;;;;;8.20;7.70;;;19.90;99.90;;;;;;7509134;26;20280;-78
2024/05/07 11:14:30;;;;;;;7.97;7.47;;;20.10;99.90;;;;;;7513293;26;20231;-77
2024/05/07 11:17:53;;;;;;;8.05;7.55;;;20.20;99.90;;;;;;7518804;26;20271;-77
2024/05/07 11:21:20;;;;;;;9.32;8.73;;;20.20;99.90;;;;;;7518431;26;20715;-76
2024/05/07 11:24:43;;;;;;;8.55;7.85;;;20.30;99.90;;;;;;7524206;26;20283;-77
2024/05/07 11:28:07;;;;;;;9.30;8.50;;;20.40;99.90;;;;;;7508721;26;20332;-76
2024/05/07 11:31:29;;;;;;;9.52;8.82;;;20.40;99.90;;;;;;7518842;26;20228;-77
2024/05/07 11:34:52;;;;;;;13.77;12.80;;;20.90;99.90;;;;;;7490998;26;20237;-77
2024/05/07 11:38:18;;;;;;;7.93;7.43;;;21.50;99.90;;;;;;7494933;26;20229;-78
2024/05/07 11:41:41;;;;;;;6.30;5.90;;;22.40;99.90;;;;;;7515046;26;20263;-76
2024/05/07 11:45:07;;;;;;;6.63;6.22;;;22.60;99.90;;;;;;7510560;26;20345;-79
2024/05/07 11:48:30;;;;;;;7.20;6.65;;;22.20;99.90;;;;;;7501923;26;20238;-79
2024/05/07 11:51:53;;;;;;;7.65;7.15;;;21.60;99.90;;;;;;7513022;26;20564;-78
2024/05/07 11:55:19;;;;;;;7.68;7.28;;;21.20;99.90;;;;;;7514092;26;20271;-79
2024/05/07 11:58:44;;;;;;;6.68;6.28;;;20.90;99.90;;;;;;7512472;26;20330;-78
2024/05/07 12:02:07;;;;;;;8.13;7.50;;;20.90;99.90;;;;;;7503676;26;20567;-78
2024/05/07 12:05:30;;;;;;;9.63;9.02;;;21.00;99.90;;;;;;7511298;26;20722;-78
2024/05/07 12:08:54;;;;;;;14.00;12.68;;;21.00;99.90;;;;;;7502306;26;20232;-78
2024/05/07 12:12:20;;;;;;;11.27;10.38;;;20.80;99.90;;;;;;7513103;26;20221;-78
2024/05/07 12:15:43;;;;;;;12.35;9.75;;;20.60;99.90;;;;;;7498833;26;20232;-78
2024/05/07 12:19:06;;;;;;;9.52;8.82;;;20.20;99.90;;;;;;7511753;26;20272;-76
2024/05/07 12:26:08;;;;;;;9.10;8.50;;;20.30;99.90;;;;;;7493358;26;20740;-77
2024/05/07 12:29:34;;;;;;;7.55;7.07;;;20.30;99.90;;;;;;7495544;26;20229;-78
2024/05/07 12:32:57;;;;;;;6.65;6.32;;;20.60;99.90;;;;;;7511637;26;20720;-78
2024/05/07 12:36:20;;;;;;;9.13;8.43;;;21.10;99.90;;;;;;7504376;26;20228;-78
2024/05/07 12:39:43;;;;;;;8.07;7.57;;;21.10;99.90;;;;;;7516374;26;20228;-78
2024/05/07 12:43:07;;;;;;;5.63;5.32;;;21.20;99.90;;;;;;7513014;26;20233;-76
2024/05/07 12:46:34;;;;;;;5.22;4.90;;;21.00;99.90;;;;;;7504052;26;20241;-76
2024/05/07 12:49:58;;;;;;;6.45;6.15;;;20.90;99.90;;;;;;7502677;26;20334;-78
2024/05/07 12:53:21;;;;;;;3.65;3.50;;;20.80;99.90;;;;;;7506352;26;20233;-77
2024/05/07 12:56:44;;;;;;;4.55;4.25;;;20.90;99.90;;;;;;7511159;26;20735;-77
2024/05/07 13:00:08;;;;;;;3.55;3.35;;;20.90;99.90;;;;;;7508137;26;20316;-80
2024/05/07 13:03:34;;;;;;;3.05;2.95;;;21.10;99.90;;;;;;7510256;26;20271;-76
2024/05/07 13:06:57;;;;;;;2.60;2.50;;;20.80;99.90;;;;;;7511099;26;20264;-76
2024/05/07 13:10:21;;;;;;;2.97;2.85;;;20.50;99.90;;;;;;7510388;26;20267;-76
2024/05/07 13:13:44;;;;;;;3.80;3.60;;;20.40;99.90;;;;;;7511846;26;20278;-77
2024/05/07 13:17:07;;;;;;;4.50;4.30;;;20.40;99.90;;;;;;7507247;26;20229;-77
2024/05/07 13:20:32;;;;;;;3.15;2.95;;;20.40;99.90;;;;;;7501037;26;20660;-78
2024/05/07 13:23:55;;;;;;;3.50;3.30;;;20.30;99.90;;;;;;7514335;26;20232;-77
2024/05/07 13:27:18;;;;;;;3.22;3.13;;;20.30;99.90;;;;;;7519117;26;20229;-78
2024/05/07 13:30:41;;;;;;;4.30;4.00;;;20.50;99.90;;;;;;7517078;26;20727;-76
2024/05/07 13:34:05;;;;;;;5.20;4.80;;;20.60;99.90;;;;;;7509539;26;20233;-77
2024/05/07 13:37:30;;;;;;;4.32;4.13;;;20.70;99.90;;;;;;7499520;26;20272;-78
2024/05/07 13:40:53;;;;;;;5.47;5.07;;;21.10;99.90;;;;;;7510179;26;20232;-77
2024/05/07 13:44:16;;;;;;;4.50;4.20;;;21.20;99.90;;;;;;7503935;26;20232;-77
2024/05/07 13:47:40;;;;;;;5.20;4.90;;;21.30;99.90;;;;;;7514462;26;20271;-79
2024/05/07 13:51:03;;;;;;;7.57;7.07;;;21.30;99.90;;;;;;7488499;26;20268;-78
2024/05/07 13:54:28;;;;;;;6.00;5.57;;;21.30;99.90;;;;;;7501373;26;20622;-79
2024/05/07 13:57:51;;;;;;;6.00;5.47;;;21.30;99.90;;;;;;7505765;26;20228;-78
2024/05/07 14:01:14;;;;;;;5.57;5.18;;;21.50;99.90;;;;;;7503096;26;20396;-78
2024/05/07 14:04:37;;;;;;;6.13;5.63;;;21.70;99.90;;;;;;7516691;26;20232;-77
2024/05/07 14:08:00;;;;;;;4.95;4.63;;;21.90;99.90;;;;;;7504520;26;20268;-78
2024/05/07 14:11:26;;;;;;;3.90;3.70;;;21.80;99.90;;;;;;7517204;26;20233;-77
2024/05/07 14:14:49;;;;;;;3.20;2.90;;;21.80;99.90;;;;;;7516040;26;20287;-77
2024/05/07 14:18:12;;;;;;;2.65;2.55;;;21.80;99.90;;;;;;7513562;26;20332;-77
2024/05/07 14:21:35;;;;;;;4.38;4.00;;;21.70;99.90;;;;;;7486442;26;20245;-77
2024/05/07 14:24:59;;;;;;;3.92;3.67;;;21.40;99.90;;;;;;7517756;26;20274;-77
2024/05/07 14:28:24;;;;;;;2.80;2.70;;;21.30;99.90;;;;;;7522579;26;20583;-76
2024/05/07 14:31:49;;;;;;;3.80;3.50;;;21.20;99.90;;;;;;7512087;26;20344;-76
2024/05/07 14:35:12;;;;;;;2.95;2.85;;;21.30;99.90;;;;;;7511809;26;20244;-78
2024/05/07 14:38:35;;;;;;;3.03;2.72;;;21.30;99.90;;;;;;7512597;26;20571;-76
2024/05/07 14:41:58;;;;;;;2.55;2.45;;;21.20;99.90;;;;;;7513804;26;20228;-78
2024/05/07 14:45:23;;;;;;;3.35;3.20;;;21.30;99.90;;;;;;7504715;26;20271;-78
2024/05/07 14:48:46;;;;;;;3.97;3.67;;;21.30;99.90;;;;;;7502253;26;20249;-77
2024/05/07 14:52:09;;;;;;;4.35;4.05;;;21.40;99.90;;;;;;7510183;26;20283;-77
2024/05/07 14:55:35;;;;;;;4.50;4.10;;;21.30;99.90;;;;;;7506260;26;20572;-77
2024/05/07 14:58:58;;;;;;;4.30;4.00;;;21.10;99.90;;;;;;7517090;26;20769;-78
2024/05/07 15:02:24;;;;;;;4.15;3.90;;;20.80;99.90;;;;;;7506397;26;20326;-76
2024/05/07 15:05:47;;;;;;;3.58;3.38;;;20.60;99.90;;;;;;7522557;26;20279;-79
2024/05/07 15:09:10;;;;;;;3.47;3.17;;;20.30;99.90;;;;;;7496039;26;20276;-77
2024/05/07 15:12:33;;;;;;;4.28;4.00;;;20.20;99.90;;;;;;7515825;26;20266;-77
2024/05/07 15:15:56;;;;;;;5.70;5.25;;;20.10;99.90;;;;;;7515989;26;20240;-77
2024/05/07 15:19:22;;;;;;;3.30;3.05;;;19.90;99.90;;;;;;7505698;26;20232;-77
2024/05/07 15:22:45;;;;;;;5.53;5.07;;;19.80;99.90;;;;;;7490855;26;20233;-78
2024/05/07 15:26:08;;;;;;;2.30;2.20;;;19.90;99.90;;;;;;7510822;26;20233;-77
2024/05/07 15:29:31;;;;;;;2.60;2.47;;;19.90;99.90;;;;;;7504995;26;20233;-76
2024/05/07 15:32:54;;;;;;;2.40;2.30;;;19.80;99.90;;;;;;7521056;26;20765;-75
2024/05/07 15:36:20;;;;;;;3.92;3.72;;;19.60;99.90;;;;;;7507178;26;20278;-78
2024/05/07 15:39:43;;;;;;;2.35;2.22;;;19.50;99.90;;;;;;7508040;26;20237;-77
2024/05/07 15:43:06;;;;;;;3.63;3.42;;;19.40;99.90;;;;;;7496258;26;20584;-76
2024/05/07 15:46:30;;;;;;;4.00;3.70;;;19.30;99.90;;;;;;7509972;26;20224;-77
2024/05/07 15:49:52;;;;;;;3.05;2.83;;;19.40;99.90;;;;;;7503052;26;20233;-77
2024/05/07 15:53:18;;;;;;;2.97;2.88;;;19.50;99.90;;;;;;7512861;26;20232;-78
2024/05/07 15:56:41;;;;;;;6.32;5.72;;;19.40;99.90;;;;;;7498591;26;20280;-75
2024/05/07 16:00:05;;;;;;;6.25;5.85;;;19.30;99.90;;;;;;7491478;26;20611;-76
2024/05/07 16:03:28;;;;;;;9.55;8.77;;;19.30;99.90;;;;;;7520201;26;20274;-75
2024/05/07 16:06:51;;;;;;;10.88;10.02;;;19.20;99.90;;;;;;7513022;26;20233;-76
2024/05/07 16:10:16;;;;;;;13.98;12.85;;;19.10;99.90;;;;;;7503254;26;20295;-76
2024/05/07 16:13:39;;;;;;;16.83;15.45;;;18.90;99.90;;;;;;7510113;26;20241;-76
2024/05/07 16:17:02;;;;;;;20.02;18.42;;;18.90;99.90;;;;;;7498962;26;20793;-75
2024/05/07 16:20:26;;;;;;;21.15;19.45;;;18.80;99.90;;;;;;7515547;26;20240;-77
2024/05/07 16:23:49;;;;;;;25.55;23.40;;;18.90;99.90;;;;;;7514008;26;20284;-75
2024/05/07 16:27:15;;;;;;;28.38;26.00;;;18.80;99.90;;;;;;7504449;26;20318;-75
2024/05/07 16:30:37;;;;;;;28.65;26.25;;;18.80;99.90;;;;;;7524707;26;20271;-76
2024/05/07 16:34:01;;;;;;;28.17;25.98;;;18.70;99.90;;;;;;7510428;26;20232;-77
2024/05/07 16:37:24;;;;;;;31.55;28.95;;;18.60;99.90;;;;;;7502839;26;20233;-76
2024/05/07 16:40:46;;;;;;;32.65;29.67;;;18.50;99.90;;;;;;7518982;26;20232;-76
2024/05/07 16:44:12;;;;;;;30.92;28.42;;;18.50;99.90;;;;;;7512834;26;20240;-76
2024/05/07 16:47:34;;;;;;;31.08;28.63;;;18.40;99.90;;;;;;7507581;26;20270;-75
2024/05/07 16:50:57;;;;;;;32.55;30.05;;;18.50;99.90;;;;;;7509117;26;20229;-75
2024/05/07 16:54:20;;;;;;;30.48;28.00;;;18.50;99.90;;;;;;7505570;26;20334;-77
2024/05/07 16:57:43;;;;;;;28.45;25.95;;;18.50;99.90;;;;;;7500689;26;20233;-77
2024/05/07 17:01:11;;;;;;;28.23;26.02;;;18.40;99.90;;;;;;7513814;26;20944;-75
2024/05/07 17:04:34;;;;;;;23.52;21.77;;;18.40;99.90;;;;;;7500421;26;20722;-75
2024/05/07 17:07:57;;;;;;;24.88;22.58;;;18.50;99.90;;;;;;7504093;26;20571;-75
2024/05/07 17:11:21;;;;;;;23.88;22.17;;;18.40;99.90;;;;;;7514394;26;20221;-76
2024/05/07 17:14:44;;;;;;;35.08;32.15;;;18.30;99.90;;;;;;7516251;26;20243;-76
2024/05/07 17:18:10;;;;;;;23.05;21.25;;;18.30;99.90;;;;;;7515987;26;20253;-75
2024/05/07 17:21:33;;;;;;;21.20;19.50;;;18.30;99.90;;;;;;7515724;26;20535;-76
2024/05/07 17:24:56;;;;;;;21.92;20.23;;;18.20;99.90;;;;;;7502241;26;20287;-75
2024/05/07 17:28:20;;;;;;;20.88;19.00;;;18.10;99.90;;;;;;7496898;26;20660;-75
2024/05/07 17:31:43;;;;;;;18.85;17.20;;;18.10;99.90;;;;;;7504011;26;20233;-75
2024/05/07 17:35:09;;;;;;;17.20;15.90;;;18.10;99.90;;;;;;7501294;26;20252;-75
2024/05/07 17:38:32;;;;;;;17.95;16.35;;;18.00;99.90;;;;;;7494031;26;20272;-76
2024/05/07 17:41:55;;;;;;;17.48;16.23;;;18.00;99.90;;;;;;7503660;26;20281;-76